createdAt,value
2018-12-24T00:00:22.669Z,91.92
2018-12-24T00:02:54.809Z,91.87
2018-12-24T00:05:26.459Z,91.71
2018-12-24T00:07:58.062Z,91.80
2018-12-24T00:10:29.647Z,91.78
2018-12-24T00:13:02.126Z,91.73
2018-12-24T00:15:34.115Z,91.83
2018-12-24T00:18:06.441Z,91.82
2018-12-24T00:20:38.113Z,91.96
2018-12-24T00:23:09.919Z,92.06
2018-12-24T00:25:41.759Z,91.99
2018-12-24T00:28:15.792Z,91.92
2018-12-24T00:30:48.342Z,92.01
2018-12-24T00:33:22.884Z,91.92
2018-12-24T00:35:56.022Z,92.10
2018-12-24T00:38:28.035Z,92.30
2018-12-24T00:41:00.080Z,92.30
2018-12-24T00:43:31.921Z,92.33
2018-12-24T00:46:03.548Z,92.22
2018-12-24T00:48:35.404Z,92.31
2018-12-24T00:51:07.425Z,92.29
2018-12-24T00:53:39.145Z,92.13
2018-12-24T00:56:10.794Z,92.12
2018-12-24T00:58:42.801Z,92.06
2018-12-24T01:01:14.550Z,92.20
2018-12-24T01:03:46.219Z,92.19
2018-12-24T01:06:19.422Z,92.04
2018-12-24T01:08:51.412Z,92.04
2018-12-24T01:12:05.726Z,91.97
2018-12-24T01:14:37.296Z,92.00
2018-12-24T01:17:08.292Z,92.06
2018-12-24T01:19:39.478Z,91.95
2018-12-24T01:22:10.616Z,92.09
2018-12-24T01:24:42.027Z,91.91
2018-12-24T01:27:13.955Z,92.14
2018-12-24T01:29:45.025Z,92.02
2018-12-24T01:32:16.101Z,91.58
2018-12-24T01:34:47.407Z,91.97
2018-12-24T01:37:19.165Z,91.98
2018-12-24T01:39:50.523Z,92.12
2018-12-24T01:42:21.743Z,92.34
2018-12-24T01:44:53.137Z,92.09
2018-12-24T01:47:26.809Z,92.46
2018-12-24T01:49:58.363Z,92.42
2018-12-24T01:52:31.406Z,92.47
2018-12-24T01:55:03.068Z,92.50
2018-12-24T01:57:34.260Z,92.25
2018-12-24T02:00:06.174Z,92.07
2018-12-24T02:02:37.322Z,92.11
2018-12-24T02:05:08.713Z,92.11
2018-12-24T02:07:39.887Z,92.36
2018-12-24T02:10:11.265Z,92.56
2018-12-24T02:12:43.352Z,92.43
2018-12-24T02:15:14.466Z,92.41
2018-12-24T02:17:46.345Z,92.28
2018-12-24T02:20:17.979Z,92.33
2018-12-24T02:22:49.382Z,92.31
2018-12-24T02:25:20.574Z,92.36
2018-12-24T02:27:52.486Z,92.22
2018-12-24T02:30:24.167Z,92.40
2018-12-24T02:32:55.419Z,92.44
2018-12-24T02:35:26.604Z,92.36
2018-12-24T02:37:59.166Z,92.37
2018-12-24T02:40:30.952Z,92.52
2018-12-24T02:43:02.478Z,92.59
2018-12-24T02:45:34.177Z,92.83
2018-12-24T02:48:06.310Z,92.87
2018-12-24T02:50:37.636Z,92.88
2018-12-24T02:53:09.077Z,92.93
2018-12-24T02:55:40.361Z,92.90
2018-12-24T02:58:11.787Z,93.01
2018-12-24T03:00:43.078Z,93.05
2018-12-24T03:03:14.433Z,92.94
2018-12-24T03:05:47.773Z,92.93
2018-12-24T03:08:19.167Z,93.01
2018-12-24T03:10:52.308Z,92.96
2018-12-24T03:13:24.644Z,93.16
2018-12-24T03:15:56.423Z,93.25
2018-12-24T03:18:27.876Z,93.34
2018-12-24T03:20:59.674Z,93.42
2018-12-24T03:23:31.081Z,93.41
2018-12-24T03:26:02.464Z,93.33
2018-12-24T03:28:33.877Z,93.73
2018-12-24T03:31:05.147Z,93.78
2018-12-24T03:33:37.057Z,94.08
2018-12-24T03:36:08.145Z,94.24
2018-12-24T03:38:39.818Z,94.44
2018-12-24T03:41:11.316Z,94.71
2018-12-24T03:43:42.488Z,94.93
2018-12-24T03:46:13.877Z,94.73
2018-12-24T03:48:45.085Z,94.73
2018-12-24T03:51:16.802Z,94.62
2018-12-24T03:53:47.932Z,94.42
2018-12-24T03:56:20.001Z,94.45
2018-12-24T03:58:51.384Z,94.44
2018-12-24T04:01:22.678Z,94.46
2018-12-24T04:03:54.045Z,94.74
2018-12-24T04:06:25.889Z,94.89
2018-12-24T04:08:57.355Z,94.71
2018-12-24T04:11:28.837Z,94.45
2018-12-24T04:13:59.900Z,94.37
2018-12-24T04:16:32.938Z,94.30
2018-12-24T04:19:04.940Z,93.90
2018-12-24T04:21:36.659Z,93.70
2018-12-24T04:24:07.927Z,93.68
2018-12-24T04:26:40.155Z,93.77
2018-12-24T04:29:12.074Z,93.65
2018-12-24T04:31:43.342Z,93.45
2018-12-24T04:34:14.736Z,93.43
2018-12-24T04:36:46.686Z,93.42
2018-12-24T04:39:17.876Z,93.08
2018-12-24T04:41:49.315Z,93.04
2018-12-24T04:44:20.572Z,92.75
2018-12-24T04:46:51.777Z,92.62
2018-12-24T04:49:22.993Z,92.22
2018-12-24T04:51:54.275Z,92.01
2018-12-24T04:54:25.664Z,91.93
2018-12-24T04:56:56.944Z,91.52
2018-12-24T04:59:28.512Z,91.12
2018-12-24T05:01:59.752Z,90.42
2018-12-24T05:04:30.943Z,90.42
2018-12-24T05:07:02.837Z,90.45
2018-12-24T05:09:34.329Z,90.69
2018-12-24T05:12:06.308Z,90.45
2018-12-24T05:14:39.530Z,90.32
2018-12-24T05:17:11.068Z,90.54
2018-12-24T05:19:42.703Z,90.34
2018-12-24T05:22:14.235Z,90.62
2018-12-24T05:24:45.342Z,90.71
2018-12-24T05:27:17.045Z,90.57
2018-12-24T05:29:48.513Z,90.77
2018-12-24T05:32:19.989Z,90.57
2018-12-24T05:34:51.040Z,90.47
2018-12-24T05:37:22.521Z,90.39
2018-12-24T05:39:53.805Z,90.63
2018-12-24T05:42:25.163Z,90.81
2018-12-24T05:44:56.406Z,90.74
2018-12-24T05:47:27.673Z,90.73
2018-12-24T05:49:59.005Z,90.87
2018-12-24T05:52:30.221Z,91.11
2018-12-24T05:55:01.308Z,91.06
2018-12-24T05:57:34.809Z,91.00
2018-12-24T06:00:06.272Z,91.04
2018-12-24T06:02:37.576Z,91.07
2018-12-24T06:05:08.636Z,92.32
2018-12-24T06:07:39.813Z,91.70
2018-12-24T06:10:11.114Z,90.38
2018-12-24T06:12:42.629Z,91.25
2018-12-24T06:15:13.733Z,90.40
2018-12-24T06:17:45.067Z,90.51
2018-12-24T06:20:16.178Z,90.43
2018-12-24T06:22:47.416Z,90.51
2018-12-24T06:25:19.136Z,90.12
2018-12-24T06:27:51.493Z,90.06
2018-12-24T06:30:22.803Z,90.48
2018-12-24T06:32:54.251Z,90.33
2018-12-24T06:35:25.335Z,90.29
2018-12-24T06:37:57.127Z,90.30
2018-12-24T06:40:28.221Z,90.69
2018-12-24T06:42:59.338Z,90.21
2018-12-24T06:45:30.388Z,90.64
2018-12-24T06:48:01.474Z,90.75
2018-12-24T06:50:32.730Z,90.71
2018-12-24T06:53:04.392Z,89.97
2018-12-24T06:55:35.629Z,90.25
2018-12-24T06:58:06.745Z,90.26
2018-12-24T07:00:38.036Z,90.68
2018-12-24T07:03:10.528Z,90.40
2018-12-24T07:05:41.854Z,90.38
2018-12-24T07:08:13.040Z,90.21
2018-12-24T07:10:46.048Z,90.27
2018-12-24T07:13:17.831Z,90.61
2018-12-24T07:15:49.241Z,90.96
2018-12-24T07:18:21.851Z,91.18
2018-12-24T07:20:53.013Z,90.27
2018-12-24T07:23:24.303Z,90.24
2018-12-24T07:25:55.438Z,90.44
2018-12-24T07:28:27.326Z,90.12
2018-12-24T07:30:58.483Z,90.58
2018-12-24T07:33:29.622Z,91.29
2018-12-24T07:36:00.848Z,92.40
2018-12-24T07:38:31.929Z,93.24
2018-12-24T07:41:03.003Z,93.58
2018-12-24T07:43:34.073Z,93.90
2018-12-24T07:46:06.014Z,94.15
2018-12-24T07:48:37.225Z,94.47
2018-12-24T07:51:08.214Z,94.67
2018-12-24T07:53:40.194Z,93.32
2018-12-24T07:56:11.781Z,91.56
2018-12-24T07:58:43.160Z,91.51
2018-12-24T08:01:14.401Z,91.85
2018-12-24T08:03:45.758Z,92.50
2018-12-24T08:06:17.118Z,92.81
2018-12-24T08:08:48.529Z,91.68
2018-12-24T08:11:20.014Z,90.24
2018-12-24T08:13:51.467Z,90.30
2018-12-24T08:16:22.932Z,91.78
2018-12-24T08:18:54.270Z,92.63
2018-12-24T08:21:26.546Z,92.87
2018-12-24T08:23:57.880Z,93.13
2018-12-24T08:26:29.114Z,91.44
2018-12-24T08:29:00.362Z,91.05
2018-12-24T08:31:31.611Z,89.79
2018-12-24T08:34:03.081Z,90.12
2018-12-24T08:36:34.049Z,89.62
2018-12-24T08:39:07.810Z,88.77
2018-12-24T08:41:40.278Z,87.33
2018-12-24T08:44:11.314Z,85.72
2018-12-24T08:46:42.399Z,84.98
2018-12-24T08:49:13.712Z,82.85
2018-12-24T08:51:46.471Z,81.18
2018-12-24T08:54:18.567Z,82.07
2018-12-24T08:56:49.939Z,81.70
2018-12-24T08:59:21.185Z,81.69
2018-12-24T09:01:52.931Z,82.19
2018-12-24T09:04:24.273Z,82.22
2018-12-24T09:06:55.528Z,81.97
2018-12-24T09:09:27.184Z,82.04
2018-12-24T09:11:58.315Z,81.94
2018-12-24T09:14:29.432Z,81.27
2018-12-24T09:17:02.761Z,81.39
2018-12-24T09:19:34.081Z,81.66
2018-12-24T09:22:06.158Z,82.49
2018-12-24T09:24:37.419Z,83.00
2018-12-24T09:27:08.996Z,82.36
2018-12-24T09:29:40.222Z,83.35
2018-12-24T09:32:11.454Z,83.03
2018-12-24T09:34:42.915Z,82.84
2018-12-24T09:37:14.551Z,81.91
2018-12-24T09:39:46.793Z,82.62
2018-12-24T09:42:19.509Z,83.73
2018-12-24T09:44:58.728Z,83.22
2018-12-24T09:47:23.729Z,81.61
2018-12-24T09:49:55.190Z,82.56
2018-12-24T09:52:26.566Z,82.96
2018-12-24T09:54:57.700Z,82.31
2018-12-24T09:57:29.004Z,82.33
2018-12-24T10:00:00.358Z,82.46
2018-12-24T10:02:38.178Z,83.47
2018-12-24T10:05:10.100Z,82.36
2018-12-24T10:07:41.964Z,82.95
2018-12-24T10:10:18.192Z,83.78
2018-12-24T10:12:50.520Z,83.90
2018-12-24T10:15:21.676Z,83.55
2018-12-24T10:17:52.870Z,83.47
2018-12-24T10:20:24.122Z,84.16
2018-12-24T10:22:55.491Z,83.89
2018-12-24T10:25:26.671Z,84.21
2018-12-24T10:27:57.871Z,84.04
2018-12-24T10:30:30.102Z,83.51
2018-12-24T10:33:01.468Z,83.51
2018-12-24T10:35:33.146Z,83.14
2018-12-24T10:38:04.438Z,83.22
2018-12-24T10:40:42.352Z,83.32
2018-12-24T10:43:13.493Z,83.61
2018-12-24T10:45:45.033Z,82.99
2018-12-24T10:48:15.991Z,84.67
2018-12-24T10:50:47.170Z,86.02
2018-12-24T10:53:20.022Z,87.42
2018-12-24T10:55:51.448Z,86.07
2018-12-24T10:58:22.798Z,85.89
2018-12-24T11:00:53.861Z,86.97
2018-12-24T11:03:25.907Z,87.23
2018-12-24T11:05:57.107Z,85.37
2018-12-24T11:08:29.511Z,83.48
2018-12-24T11:11:01.006Z,82.90
2018-12-24T11:13:32.489Z,81.78
2018-12-24T11:16:03.656Z,79.71
2018-12-24T11:18:35.034Z,78.56
2018-12-24T11:21:06.854Z,77.66
2018-12-24T11:23:38.667Z,79.08
2018-12-24T11:26:09.933Z,77.88
2018-12-24T11:28:41.830Z,78.83
2018-12-24T11:31:13.027Z,79.79
2018-12-24T11:33:46.523Z,79.56
2018-12-24T11:36:17.688Z,80.50
2018-12-24T11:38:48.975Z,79.85
2018-12-24T11:41:20.433Z,79.63
2018-12-24T11:43:51.887Z,78.21
2018-12-24T11:46:23.243Z,75.54
2018-12-24T11:48:54.399Z,76.34
2018-12-24T11:51:25.989Z,75.43
2018-12-24T11:53:57.198Z,75.30
2018-12-24T11:56:28.654Z,76.31
2018-12-24T11:58:59.776Z,76.02
2018-12-24T12:01:31.107Z,76.30
2018-12-24T12:04:03.508Z,76.28
2018-12-24T12:06:34.613Z,76.17
2018-12-24T12:09:07.813Z,77.08
2018-12-24T12:11:39.266Z,76.98
2018-12-24T12:14:11.640Z,76.78
2018-12-24T12:16:43.210Z,77.87
2018-12-24T12:19:14.770Z,76.15
2018-12-24T12:21:46.991Z,77.04
2018-12-24T12:24:18.441Z,77.30
2018-12-24T12:26:50.669Z,77.11
2018-12-24T12:29:21.787Z,78.53
2018-12-24T12:31:53.009Z,80.42
2018-12-24T12:34:24.241Z,79.57
2018-12-24T12:36:55.890Z,78.03
2018-12-24T12:39:27.240Z,78.57
2018-12-24T12:41:58.402Z,78.97
2018-12-24T12:44:29.733Z,79.72
2018-12-24T12:47:01.181Z,80.42
2018-12-24T12:49:34.030Z,79.37
2018-12-24T12:52:07.206Z,78.84
2018-12-24T12:54:38.738Z,80.46
2018-12-24T12:57:09.945Z,78.82
2018-12-24T12:59:42.053Z,79.69
2018-12-24T13:02:13.347Z,79.58
2018-12-24T13:04:44.858Z,80.27
2018-12-24T13:07:17.547Z,77.58
2018-12-24T13:09:48.644Z,77.83
2018-12-24T13:12:19.893Z,77.91
2018-12-24T13:14:50.966Z,76.89
2018-12-24T13:17:22.246Z,75.22
2018-12-24T13:19:53.480Z,76.58
2018-12-24T13:22:24.617Z,75.37
2018-12-24T13:24:55.825Z,75.91
2018-12-24T13:27:27.409Z,75.84
2018-12-24T13:29:58.694Z,74.99
2018-12-24T13:32:29.788Z,74.33
2018-12-24T13:35:01.780Z,75.78
2018-12-24T13:37:33.034Z,76.04
2018-12-24T13:40:04.465Z,75.29
2018-12-24T13:42:35.783Z,75.41
2018-12-24T13:45:07.811Z,75.81
2018-12-24T13:47:39.205Z,75.80
2018-12-24T13:50:10.542Z,76.13
2018-12-24T13:52:41.699Z,76.38
2018-12-24T13:55:12.711Z,76.12
2018-12-24T13:57:43.999Z,75.51
2018-12-24T14:00:15.526Z,75.95
2018-12-24T14:02:46.755Z,76.13
2018-12-24T14:05:18.481Z,74.82
2018-12-24T14:07:50.419Z,75.33
2018-12-24T14:10:21.653Z,75.30
2018-12-24T14:12:53.977Z,75.41
2018-12-24T14:15:25.194Z,75.16
2018-12-24T14:17:56.274Z,75.37
2018-12-24T14:20:27.510Z,76.29
2018-12-24T14:22:58.806Z,75.27
2018-12-24T14:25:32.457Z,76.12
2018-12-24T14:28:04.235Z,75.51
2018-12-24T14:30:36.993Z,75.39
2018-12-24T14:33:08.211Z,76.38
2018-12-24T14:35:40.298Z,75.92
2018-12-24T14:38:11.630Z,76.54
2018-12-24T14:40:42.742Z,76.13
2018-12-24T14:43:15.333Z,77.12
2018-12-24T14:45:46.550Z,76.97
2018-12-24T14:48:18.777Z,77.14
2018-12-24T14:50:50.138Z,77.12
2018-12-24T14:53:21.350Z,77.45
2018-12-24T14:55:52.506Z,77.53
2018-12-24T14:58:23.881Z,77.62
2018-12-24T15:00:56.418Z,77.77
2018-12-24T15:03:27.804Z,78.57
2018-12-24T15:05:59.360Z,80.04
2018-12-24T15:08:30.594Z,80.65
2018-12-24T15:11:02.287Z,81.61
2018-12-24T15:13:33.334Z,82.54
2018-12-24T15:16:04.587Z,82.24
2018-12-24T15:18:35.762Z,82.24
2018-12-24T15:21:06.961Z,82.93
2018-12-24T15:23:39.576Z,81.91
2018-12-24T15:26:10.548Z,83.37
2018-12-24T15:28:41.644Z,83.25
2018-12-24T15:31:13.018Z,83.18
2018-12-24T15:33:45.350Z,83.03
2018-12-24T15:36:16.451Z,83.02
2018-12-24T15:38:47.770Z,82.46
2018-12-24T15:41:19.172Z,82.18
2018-12-24T15:43:50.479Z,79.85
2018-12-24T15:46:22.481Z,79.95
2018-12-24T15:48:53.733Z,79.33
2018-12-24T15:51:24.890Z,79.96
2018-12-24T15:53:58.038Z,79.46
2018-12-24T15:56:29.199Z,78.99
2018-12-24T15:59:00.516Z,78.62
2018-12-24T16:01:31.820Z,79.30
2018-12-24T16:04:03.256Z,79.30
2018-12-24T16:06:34.501Z,79.43
2018-12-24T16:09:07.849Z,78.39
2018-12-24T16:11:39.249Z,78.07
2018-12-24T16:14:10.651Z,77.70
2018-12-24T16:16:41.990Z,77.94
2018-12-24T16:19:13.124Z,77.56
2018-12-24T16:21:44.323Z,77.51
2018-12-24T16:24:16.137Z,77.20
2018-12-24T16:26:47.475Z,77.64
2018-12-24T16:29:18.739Z,77.03
2018-12-24T16:31:50.440Z,77.43
2018-12-24T16:34:21.709Z,75.87
2018-12-24T16:36:55.400Z,75.39
2018-12-24T16:39:26.912Z,75.47
2018-12-24T16:41:58.362Z,76.23
2018-12-24T16:44:29.519Z,77.05
2018-12-24T16:47:00.750Z,76.71
2018-12-24T16:49:32.293Z,76.24
2018-12-24T16:52:03.720Z,76.32
2018-12-24T16:54:34.846Z,77.26
2018-12-24T16:57:06.134Z,77.87
2018-12-24T16:59:37.680Z,77.79
2018-12-24T17:02:08.732Z,77.87
2018-12-24T17:04:40.203Z,77.50
2018-12-24T17:07:11.361Z,78.18
2018-12-24T17:09:43.123Z,78.11
2018-12-24T17:12:14.299Z,78.31
2018-12-24T17:14:45.654Z,78.25
2018-12-24T17:17:16.964Z,78.76
2018-12-24T17:19:48.972Z,78.35
2018-12-24T17:22:20.478Z,79.29
2018-12-24T17:24:51.741Z,79.62
2018-12-24T17:27:23.083Z,79.65
2018-12-24T17:29:54.403Z,79.70
2018-12-24T17:32:25.823Z,79.71
2018-12-24T17:34:57.662Z,79.85
2018-12-24T17:37:29.310Z,80.20
2018-12-24T17:40:01.954Z,80.69
2018-12-24T17:42:33.603Z,81.17
2018-12-24T17:45:04.933Z,81.06
2018-12-24T17:47:38.433Z,81.63
2018-12-24T17:50:09.915Z,82.59
2018-12-24T17:52:41.136Z,82.83
2018-12-24T17:55:12.736Z,83.45
2018-12-24T17:57:44.371Z,83.89
2018-12-24T18:00:15.872Z,84.24
2018-12-24T18:02:47.201Z,85.03
2018-12-24T18:05:18.614Z,85.43
2018-12-24T18:07:50.305Z,85.60
2018-12-24T18:10:21.752Z,85.82
2018-12-24T18:12:53.003Z,87.05
2018-12-24T18:15:24.349Z,85.64
2018-12-24T18:17:56.156Z,85.74
2018-12-24T18:20:29.432Z,85.57
2018-12-24T18:23:01.128Z,86.27
2018-12-24T18:25:32.707Z,86.09
2018-12-24T18:28:05.235Z,86.66
2018-12-24T18:30:37.050Z,86.85
2018-12-24T18:33:08.315Z,86.91
2018-12-24T18:35:40.913Z,86.37
2018-12-24T18:38:12.336Z,85.26
2018-12-24T18:40:43.616Z,85.04
2018-12-24T18:43:15.093Z,85.13
2018-12-24T18:45:46.376Z,85.22
2018-12-24T18:48:17.767Z,84.83
2018-12-24T18:50:49.216Z,85.12
2018-12-24T18:53:20.767Z,84.48
2018-12-24T18:55:53.152Z,83.77
2018-12-24T18:58:24.199Z,83.89
2018-12-24T19:00:55.435Z,83.24
2018-12-24T19:03:26.563Z,83.12
2018-12-24T19:05:57.694Z,82.01
2018-12-24T19:08:29.143Z,82.45
2018-12-24T19:11:00.794Z,82.84
2018-12-24T19:13:32.433Z,82.29
2018-12-24T19:16:03.704Z,82.78
2018-12-24T19:18:35.168Z,82.94
2018-12-24T19:21:06.411Z,83.45
2018-12-24T19:23:38.135Z,83.29
2018-12-24T19:26:09.543Z,83.68
2018-12-24T19:28:41.056Z,82.65
2018-12-24T19:31:12.512Z,83.59
2018-12-24T19:33:43.825Z,83.57
2018-12-24T19:36:15.359Z,83.08
2018-12-24T19:38:49.610Z,82.29
2018-12-24T19:41:20.956Z,82.15
2018-12-24T19:43:54.584Z,81.95
2018-12-24T19:46:26.571Z,82.01
2018-12-24T19:48:58.179Z,81.59
2018-12-24T19:51:29.744Z,79.88
2018-12-24T19:54:02.124Z,79.90
2018-12-24T19:56:34.172Z,80.70
2018-12-24T19:59:06.135Z,79.96
2018-12-24T20:01:38.964Z,79.34
2018-12-24T20:04:10.084Z,79.21
2018-12-24T20:06:41.517Z,78.10
2018-12-24T20:09:12.529Z,76.54
2018-12-24T20:11:43.899Z,76.54
2018-12-24T20:14:15.575Z,76.86
2018-12-24T20:16:47.300Z,77.22
2018-12-24T20:19:19.114Z,76.76
2018-12-24T20:21:50.507Z,77.19
2018-12-24T20:24:21.729Z,77.54
2018-12-24T20:26:53.110Z,77.51
2018-12-24T20:29:24.933Z,76.92
2018-12-24T20:31:56.531Z,77.75
2018-12-24T20:34:28.523Z,77.75
2018-12-24T20:37:00.198Z,78.08
2018-12-24T20:39:31.760Z,77.63
2018-12-24T20:42:03.334Z,78.04
2018-12-24T20:44:34.690Z,77.79
2018-12-24T20:47:05.913Z,78.57
2018-12-24T20:49:37.786Z,78.57
2018-12-24T20:52:10.668Z,79.08
2018-12-24T20:54:42.307Z,79.01
2018-12-24T20:57:14.249Z,79.09
2018-12-24T20:59:46.019Z,79.37
2018-12-24T21:02:17.912Z,79.46
2018-12-24T21:04:50.868Z,79.65
2018-12-24T21:07:22.505Z,80.27
2018-12-24T21:09:53.973Z,80.26
2018-12-24T21:12:25.675Z,80.38
2018-12-24T21:14:57.683Z,80.05
2018-12-24T21:17:28.849Z,80.15
2018-12-24T21:20:00.302Z,80.18
2018-12-24T21:22:31.446Z,80.25
2018-12-24T21:25:02.488Z,79.68
2018-12-24T21:27:33.738Z,79.99
2018-12-24T21:30:06.264Z,79.58
2018-12-24T21:32:39.069Z,78.90
2018-12-24T21:35:10.131Z,78.50
2018-12-24T21:37:41.415Z,78.56
2018-12-24T21:40:12.545Z,78.38
2018-12-24T21:42:43.628Z,77.94
2018-12-24T21:45:15.608Z,76.87
2018-12-24T21:47:48.450Z,75.87
2018-12-24T21:50:19.746Z,75.54
2018-12-24T21:52:51.071Z,75.20
2018-12-24T21:55:22.336Z,74.31
2018-12-24T21:57:54.421Z,73.64
2018-12-24T22:00:25.646Z,73.49
2018-12-24T22:02:56.932Z,73.89
2018-12-24T22:05:27.957Z,73.39
2018-12-24T22:07:59.045Z,73.20
2018-12-24T22:10:30.358Z,72.16
2018-12-24T22:13:01.806Z,73.06
2018-12-24T22:15:32.993Z,72.82
2018-12-24T22:18:04.494Z,72.55
2018-12-24T22:20:35.802Z,73.00
2018-12-24T22:23:07.080Z,72.16
2018-12-24T22:25:38.351Z,73.38
2018-12-24T22:28:09.448Z,73.52
2018-12-24T22:30:40.708Z,72.33
2018-12-24T22:33:12.752Z,71.48
2018-12-24T22:35:44.093Z,70.93
2018-12-24T22:38:15.275Z,71.23
2018-12-24T22:40:46.872Z,70.35
2018-12-24T22:43:18.021Z,70.86
2018-12-24T22:45:49.299Z,70.44
2018-12-24T22:48:20.365Z,68.61
2018-12-24T22:50:51.747Z,69.28
2018-12-24T22:53:22.888Z,68.68
2018-12-24T22:55:54.026Z,68.50
2018-12-24T22:58:25.178Z,69.50
2018-12-24T23:00:56.773Z,68.77
2018-12-24T23:03:27.839Z,69.81
2018-12-24T23:05:59.243Z,69.81
2018-12-24T23:08:30.640Z,69.38
2018-12-24T23:11:02.549Z,69.62
2018-12-24T23:13:33.630Z,68.67
2018-12-24T23:16:04.905Z,70.24
2018-12-24T23:18:36.268Z,69.16
2018-12-24T23:21:07.259Z,67.57
2018-12-24T23:23:38.403Z,68.63
2018-12-24T23:26:10.055Z,68.22
2018-12-24T23:28:41.275Z,69.05
2018-12-24T23:31:14.089Z,70.91
2018-12-24T23:33:45.369Z,70.86
2018-12-24T23:36:16.768Z,71.77
2018-12-24T23:38:47.978Z,72.49
2018-12-24T23:41:19.580Z,71.45
2018-12-24T23:43:50.710Z,69.61
2018-12-24T23:46:22.321Z,70.04
2018-12-24T23:48:57.639Z,69.28
2018-12-24T23:51:26.279Z,69.36
2018-12-24T23:53:57.428Z,69.86
2018-12-24T23:56:28.617Z,68.80
2018-12-24T23:58:59.806Z,69.71
